createdAt,value
2023-05-14T00:01:05.030Z,101723.69
2023-05-14T00:03:33.827Z,101724.06
2023-05-14T00:06:03.009Z,101726.38
2023-05-14T00:08:31.654Z,101731.19
2023-05-14T00:11:00.447Z,101728.70
2023-05-14T00:13:29.487Z,101726.20
2023-05-14T00:15:58.191Z,101724.80
2023-05-14T00:18:27.056Z,101723.05
2023-05-14T00:20:55.619Z,101724.14
2023-05-14T00:23:24.803Z,101730.02
2023-05-14T00:25:53.258Z,101731.63
2023-05-14T00:28:22.399Z,101727.73
2023-05-14T00:30:52.191Z,101730.95
2023-05-14T00:33:20.794Z,101730.44
2023-05-14T00:35:49.474Z,101728.98
2023-05-14T00:38:19.688Z,101725.80
2023-05-14T00:40:52.037Z,101720.45
2023-05-14T00:43:22.727Z,101719.41
2023-05-14T00:45:55.895Z,101712.85
2023-05-14T00:48:25.372Z,101713.55
2023-05-14T00:50:54.664Z,101715.87
2023-05-14T00:53:23.272Z,101711.41
2023-05-14T00:55:53.166Z,101709.10
2023-05-14T00:58:22.909Z,101704.29
2023-05-14T01:00:52.148Z,101702.88
2023-05-14T01:03:20.921Z,101702.35
2023-05-14T01:06:35.389Z,101699.55
2023-05-14T01:09:15.036Z,101702.23
2023-05-14T01:12:25.216Z,101701.41
2023-05-14T01:15:29.174Z,101698.95
2023-05-14T01:18:04.753Z,101696.15
2023-05-14T01:20:33.498Z,101696.01
2023-05-14T01:23:02.053Z,101692.99
2023-05-14T01:25:32.445Z,101696.56
2023-05-14T01:28:18.115Z,101696.39
2023-05-14T01:31:09.891Z,101697.11
2023-05-14T01:33:42.586Z,101697.46
2023-05-14T01:36:11.570Z,101701.73
2023-05-14T01:38:45.856Z,101705.64
2023-05-14T01:41:18.687Z,101705.28
2023-05-14T01:43:50.206Z,101702.44
2023-05-14T01:46:20.027Z,101705.11
2023-05-14T01:52:22.229Z,101711.33
2023-05-14T01:54:52.103Z,101714.18
2023-05-14T01:57:21.811Z,101718.09
2023-05-14T01:59:50.586Z,101715.06
2023-05-14T02:02:19.194Z,101717.37
2023-05-14T02:04:47.853Z,101720.39
2023-05-14T02:07:16.261Z,101720.04
2023-05-14T02:09:44.643Z,101719.69
2023-05-14T02:12:13.138Z,101720.37
2023-05-14T02:14:41.530Z,101720.36
2023-05-14T02:17:10.257Z,101719.84
2023-05-14T02:19:38.708Z,101722.14
2023-05-14T02:22:07.236Z,101723.55
2023-05-14T02:24:35.654Z,101725.68
2023-05-14T02:27:04.769Z,101723.39
2023-05-14T02:29:33.156Z,101724.63
2023-05-14T02:32:01.559Z,101725.52
2023-05-14T02:34:30.132Z,101725.73
2023-05-14T02:36:58.596Z,101726.40
2023-05-14T02:39:27.270Z,101727.83
2023-05-14T02:41:55.773Z,101726.58
2023-05-14T02:44:24.334Z,101725.16
2023-05-14T02:46:52.906Z,101721.44
2023-05-14T02:49:21.551Z,101722.67
2023-05-14T02:51:50.009Z,101724.80
2023-05-14T02:54:18.580Z,101723.55
2023-05-14T02:56:47.301Z,101726.04
2023-05-14T02:59:15.897Z,101726.58
2023-05-14T03:01:44.837Z,101725.69
2023-05-14T03:04:13.948Z,101727.99
2023-05-14T03:06:42.444Z,101727.11
2023-05-14T03:09:11.278Z,101729.05
2023-05-14T03:11:39.895Z,101724.80
2023-05-14T03:14:08.380Z,101719.13
2023-05-14T03:16:36.885Z,101719.65
2023-05-14T03:19:05.359Z,101720.36
2023-05-14T03:21:33.886Z,101724.80
2023-05-14T03:24:02.968Z,101729.80
2023-05-14T03:26:31.446Z,101736.03
2023-05-14T03:29:00.034Z,101735.14
2023-05-14T03:31:28.582Z,101733.36
2023-05-14T03:33:58.162Z,101736.39
2023-05-14T03:36:26.554Z,101737.63
2023-05-14T03:38:55.075Z,101739.05
2023-05-14T03:41:23.542Z,101743.49
2023-05-14T03:43:52.133Z,101742.78
2023-05-14T03:46:20.624Z,101747.23
2023-05-14T03:48:49.396Z,101748.28
2023-05-14T03:51:18.302Z,101745.61
2023-05-14T03:53:46.804Z,101748.80
2023-05-14T03:56:15.696Z,101753.27
2023-05-14T03:58:44.173Z,101755.05
2023-05-14T04:01:12.574Z,101757.70
2023-05-14T04:03:41.084Z,101760.36
2023-05-14T04:06:10.011Z,101763.91
2023-05-14T04:08:39.837Z,101767.63
2023-05-14T04:11:08.436Z,101770.82
2023-05-14T04:13:37.148Z,101769.55
2023-05-14T04:16:06.254Z,101773.06
2023-05-14T04:18:35.631Z,101772.30
2023-05-14T04:21:04.372Z,101769.27
2023-05-14T04:23:32.911Z,101769.19
2023-05-14T04:26:01.396Z,101770.70
2023-05-14T04:28:29.793Z,101770.65
2023-05-14T04:30:58.906Z,101772.71
2023-05-14T04:33:27.966Z,101774.73
2023-05-14T04:35:56.644Z,101775.02
2023-05-14T04:38:25.184Z,101777.10
2023-05-14T04:40:53.931Z,101780.73
2023-05-14T04:43:22.411Z,101780.98
2023-05-14T04:45:52.526Z,101785.41
2023-05-14T04:48:21.138Z,101787.16
2023-05-14T04:50:49.579Z,101790.27
2023-05-14T04:53:18.122Z,101790.20
2023-05-14T04:55:46.502Z,101787.77
2023-05-14T04:58:15.107Z,101787.11
2023-05-14T05:00:44.624Z,101785.89
2023-05-14T05:03:13.239Z,101786.70
2023-05-14T05:05:41.937Z,101787.10
2023-05-14T05:08:11.555Z,101780.90
2023-05-14T05:10:40.029Z,101780.53
2023-05-14T05:13:08.630Z,101786.25
2023-05-14T05:15:37.123Z,101784.68
2023-05-14T05:18:06.554Z,101784.29
2023-05-14T05:20:35.161Z,101785.70
2023-05-14T05:23:03.609Z,101784.41
2023-05-14T05:25:32.174Z,101783.57
2023-05-14T05:28:00.852Z,101785.38
2023-05-14T05:30:30.492Z,101782.48
2023-05-14T05:32:59.288Z,101784.92
2023-05-14T05:35:29.027Z,101780.61
2023-05-14T05:38:00.472Z,101778.27
2023-05-14T05:40:29.943Z,101780.38
2023-05-14T05:42:58.444Z,101783.86
2023-05-14T05:45:27.220Z,101777.52
2023-05-14T05:47:55.839Z,101775.94
2023-05-14T05:50:24.941Z,101774.39
2023-05-14T05:52:53.837Z,101772.85
2023-05-14T05:55:22.304Z,101772.55
2023-05-14T05:57:50.945Z,101773.70
2023-05-14T06:00:20.841Z,101768.88
2023-05-14T06:02:49.314Z,101768.83
2023-05-14T06:05:18.296Z,101769.58
2023-05-14T06:07:46.812Z,101768.64
2023-05-14T06:10:15.348Z,101766.25
2023-05-14T06:12:43.912Z,101762.99
2023-05-14T06:15:13.638Z,101764.23
2023-05-14T06:17:42.391Z,101763.11
2023-05-14T06:20:11.925Z,101758.15
2023-05-14T06:22:40.505Z,101755.61
2023-05-14T06:25:09.758Z,101752.54
2023-05-14T06:27:38.744Z,101752.85
2023-05-14T06:30:08.590Z,101751.27
2023-05-14T06:32:37.590Z,101747.56
2023-05-14T06:35:08.505Z,101743.65
2023-05-14T06:37:37.126Z,101747.10
2023-05-14T06:40:07.268Z,101747.97
2023-05-14T06:42:35.649Z,101743.86
2023-05-14T06:45:07.498Z,101744.76
2023-05-14T06:47:36.260Z,101740.75
2023-05-14T06:50:05.356Z,101739.08
2023-05-14T06:52:33.843Z,101735.04
2023-05-14T06:55:02.469Z,101733.44
2023-05-14T06:57:31.067Z,101726.41
2023-05-14T06:59:59.501Z,101725.31
2023-05-14T07:02:28.150Z,101724.02
2023-05-14T07:08:37.293Z,101731.09
2023-05-14T07:11:05.997Z,101729.85
2023-05-14T07:13:34.673Z,101725.94
2023-05-14T07:16:03.411Z,101722.09
2023-05-14T07:18:32.038Z,101719.67
2023-05-14T07:21:00.558Z,101717.48
2023-05-14T07:23:29.072Z,101717.46
2023-05-14T07:25:57.554Z,101713.89
2023-05-14T07:28:26.197Z,101713.64
2023-05-14T07:30:54.832Z,101709.24
2023-05-14T07:33:24.170Z,101702.59
2023-05-14T07:35:54.259Z,101705.48
2023-05-14T07:38:22.876Z,101704.34
2023-05-14T07:40:51.366Z,101702.40
2023-05-14T07:43:19.913Z,101695.55
2023-05-14T07:45:48.561Z,101693.34
2023-05-14T07:48:17.391Z,101692.94
2023-05-14T07:50:48.862Z,101689.36
2023-05-14T07:53:18.170Z,101687.31
2023-05-14T07:55:48.530Z,101687.67
2023-05-14T07:58:17.125Z,101683.91
2023-05-14T08:00:45.924Z,101680.92
2023-05-14T08:03:14.605Z,101681.55
2023-05-14T08:05:43.443Z,101680.05
2023-05-14T08:08:12.639Z,101682.44
2023-05-14T08:10:41.331Z,101680.34
2023-05-14T08:13:09.904Z,101674.92
2023-05-14T08:15:38.482Z,101673.95
2023-05-14T08:18:07.109Z,101677.51
2023-05-14T08:20:35.714Z,101677.18
2023-05-14T08:23:04.519Z,101673.31
2023-05-14T08:25:34.191Z,101665.78
2023-05-14T08:28:02.929Z,101661.84
2023-05-14T08:30:31.634Z,101662.73
2023-05-14T08:33:00.306Z,101659.11
2023-05-14T08:35:28.912Z,101658.90
2023-05-14T08:37:57.535Z,101659.54
2023-05-14T08:40:27.239Z,101658.02
2023-05-14T08:42:58.907Z,101654.48
2023-05-14T08:45:34.255Z,101650.81
2023-05-14T08:48:09.174Z,101650.70
2023-05-14T08:50:38.103Z,101645.02
2023-05-14T08:53:07.335Z,101645.73
2023-05-14T08:55:37.690Z,101644.23
2023-05-14T08:58:06.196Z,101642.20
2023-05-14T09:00:35.883Z,101642.77
2023-05-14T09:03:07.379Z,101641.60
2023-05-14T09:05:36.500Z,101640.31
2023-05-14T09:08:05.166Z,101638.02
2023-05-14T09:10:33.628Z,101629.89
2023-05-14T09:13:02.224Z,101625.58
2023-05-14T09:15:31.676Z,101623.80
2023-05-14T09:18:00.369Z,101619.61
2023-05-14T09:20:29.572Z,101623.26
2023-05-14T09:23:02.815Z,101621.00
2023-05-14T09:25:32.966Z,101615.71
2023-05-14T09:28:07.860Z,101611.37
2023-05-14T09:30:37.241Z,101607.84
2023-05-14T09:33:07.729Z,101609.22
2023-05-14T09:35:41.499Z,101597.48
2023-05-14T09:38:09.883Z,101601.23
2023-05-14T09:40:38.297Z,101603.18
2023-05-14T09:43:06.793Z,101594.94
2023-05-14T09:45:35.737Z,101588.48
2023-05-14T09:48:04.490Z,101586.59
2023-05-14T09:50:33.222Z,101586.08
2023-05-14T09:53:02.239Z,101585.55
2023-05-14T09:55:31.976Z,101586.16
2023-05-14T09:58:00.344Z,101577.70
2023-05-14T10:00:31.880Z,101576.07
2023-05-14T10:03:06.232Z,101573.22
2023-05-14T10:05:37.450Z,101571.31
2023-05-14T10:08:14.755Z,101571.12
2023-05-14T10:10:43.098Z,101566.98
2023-05-14T10:13:15.498Z,101558.40
2023-05-14T10:16:20.393Z,101555.11
2023-05-14T10:18:57.394Z,101553.71
2023-05-14T10:21:31.639Z,101549.90
2023-05-14T10:24:00.488Z,101544.25
2023-05-14T10:26:29.257Z,101545.09
2023-05-14T10:28:59.411Z,101539.70
2023-05-14T10:31:55.606Z,101531.40
2023-05-14T10:34:46.677Z,101532.48
2023-05-14T10:37:26.079Z,101528.43
2023-05-14T10:39:58.970Z,101528.33
2023-05-14T10:42:32.246Z,101529.88
2023-05-14T10:45:06.018Z,101528.94
2023-05-14T10:47:40.748Z,101528.31
2023-05-14T10:50:12.557Z,101521.42
2023-05-14T10:52:43.761Z,101516.83
2023-05-14T10:55:17.218Z,101520.27
2023-05-14T10:57:46.929Z,101513.08
2023-05-14T11:00:17.362Z,101517.20
2023-05-14T11:02:46.962Z,101513.67
2023-05-14T11:05:17.973Z,101516.70
2023-05-14T11:07:49.276Z,101515.15
2023-05-14T11:10:20.646Z,101504.27
2023-05-14T11:12:51.972Z,101513.21
2023-05-14T11:15:26.838Z,101513.25
2023-05-14T11:17:55.389Z,101508.83
2023-05-14T11:20:24.175Z,101505.08
2023-05-14T11:22:53.054Z,101516.89
2023-05-14T11:25:22.979Z,101507.96
2023-05-14T11:27:52.404Z,101504.48
2023-05-14T11:30:22.025Z,101505.92
2023-05-14T11:32:51.422Z,101511.79
2023-05-14T11:35:19.976Z,101509.60
2023-05-14T11:37:53.047Z,101504.07
2023-05-14T11:40:21.781Z,101502.70
2023-05-14T11:42:53.957Z,101483.64
2023-05-14T11:45:26.742Z,101497.91
2023-05-14T11:47:55.282Z,101493.95
2023-05-14T11:50:24.195Z,101484.67
2023-05-14T11:52:57.631Z,101479.45
2023-05-14T11:55:26.314Z,101472.80
2023-05-14T11:57:55.095Z,101465.93
2023-05-14T12:00:25.943Z,101465.35
2023-05-14T12:02:55.036Z,101462.54
2023-05-14T12:05:23.491Z,101463.35
2023-05-14T12:07:52.217Z,101461.10
2023-05-14T12:10:20.781Z,101458.23
2023-05-14T12:12:49.425Z,101462.27
2023-05-14T12:15:18.650Z,101462.68
2023-05-14T12:17:52.153Z,101457.92
2023-05-14T12:20:20.895Z,101449.88
2023-05-14T12:22:49.484Z,101450.42
2023-05-14T12:25:18.013Z,101445.81
2023-05-14T12:27:46.439Z,101438.81
2023-05-14T12:32:46.989Z,101425.15
2023-05-14T12:35:15.608Z,101416.38
2023-05-14T12:37:44.208Z,101410.70
2023-05-14T12:40:13.244Z,101406.63
2023-05-14T12:42:42.041Z,101409.96
2023-05-14T12:45:11.482Z,101400.76
2023-05-14T12:47:40.148Z,101398.08
2023-05-14T12:50:09.456Z,101400.81
2023-05-14T12:52:39.997Z,101398.91
2023-05-14T12:55:09.849Z,101394.98
2023-05-14T12:57:39.838Z,101391.85
2023-05-14T13:00:21.578Z,101380.42
2023-05-14T13:02:50.382Z,101384.20
2023-05-14T13:05:19.105Z,101387.16
2023-05-14T13:07:47.851Z,101382.88
2023-05-14T13:10:18.531Z,101376.28
2023-05-14T13:12:47.054Z,101363.52
2023-05-14T13:15:15.869Z,101361.00
2023-05-14T13:17:44.771Z,101359.70
2023-05-14T13:20:13.548Z,101364.48
2023-05-14T13:22:42.422Z,101361.27
2023-05-14T13:25:11.022Z,101354.89
2023-05-14T13:27:39.628Z,101356.19
2023-05-14T13:30:08.795Z,101357.23
2023-05-14T13:32:37.434Z,101360.46
2023-05-14T13:35:07.938Z,101357.37
2023-05-14T13:37:36.867Z,101357.45
2023-05-14T13:40:08.689Z,101352.86
2023-05-14T13:42:37.788Z,101348.15
2023-05-14T13:45:07.565Z,101347.23
2023-05-14T13:47:36.308Z,101352.69
2023-05-14T13:50:05.599Z,101357.63
2023-05-14T13:52:34.191Z,101358.34
2023-05-14T13:55:02.714Z,101360.42
2023-05-14T13:57:31.355Z,101359.13
2023-05-14T14:00:00.155Z,101364.13
2023-05-14T14:02:29.006Z,101350.13
2023-05-14T14:04:57.629Z,101349.46
2023-05-14T14:07:26.183Z,101343.13
2023-05-14T14:09:55.868Z,101344.05
2023-05-14T14:12:24.568Z,101336.20
2023-05-14T14:14:53.277Z,101333.76
2023-05-14T14:17:21.882Z,101335.64
2023-05-14T14:19:50.552Z,101339.80
2023-05-14T14:22:19.278Z,101336.15
2023-05-14T14:24:47.954Z,101334.65
2023-05-14T14:27:16.659Z,101331.27
2023-05-14T14:29:45.144Z,101331.32
2023-05-14T14:32:14.842Z,101331.92
2023-05-14T14:34:43.403Z,101335.80
2023-05-14T14:37:12.117Z,101333.00
2023-05-14T14:39:40.769Z,101329.52
2023-05-14T14:42:09.672Z,101334.95
2023-05-14T14:44:38.420Z,101332.70
2023-05-14T14:47:07.353Z,101328.05
2023-05-14T14:49:36.967Z,101329.43
2023-05-14T14:52:05.791Z,101321.11
2023-05-14T14:54:34.575Z,101320.84
2023-05-14T14:57:05.647Z,101315.23
2023-05-14T14:59:35.835Z,101312.93
2023-05-14T15:02:04.786Z,101314.34
2023-05-14T15:04:34.973Z,101311.52
2023-05-14T15:07:03.716Z,101311.33
2023-05-14T15:09:32.616Z,101304.67
2023-05-14T15:12:01.456Z,101305.56
2023-05-14T15:14:30.221Z,101304.19
2023-05-14T15:16:59.163Z,101296.92
2023-05-14T15:19:29.881Z,101296.23
2023-05-14T15:21:58.868Z,101297.13
2023-05-14T15:24:27.549Z,101292.30
2023-05-14T15:26:56.129Z,101288.51
2023-05-14T15:29:25.495Z,101284.34
2023-05-14T15:31:54.582Z,101281.69
2023-05-14T15:34:23.324Z,101279.37
2023-05-14T15:36:51.953Z,101274.35
2023-05-14T15:39:20.483Z,101266.48
2023-05-14T15:41:49.036Z,101261.44
2023-05-14T15:44:17.652Z,101258.16
2023-05-14T15:46:46.346Z,101253.64
2023-05-14T15:49:15.114Z,101259.36
2023-05-14T15:51:43.732Z,101256.59
2023-05-14T15:54:12.481Z,101251.63
2023-05-14T15:56:41.161Z,101251.42
2023-05-14T15:59:09.942Z,101242.66
2023-05-14T16:01:38.625Z,101236.11
2023-05-14T16:04:07.295Z,101237.33
2023-05-14T16:06:36.471Z,101236.70
2023-05-14T16:09:05.304Z,101230.99
2023-05-14T16:11:34.005Z,101233.76
2023-05-14T16:14:02.746Z,101237.34
2023-05-14T16:16:31.467Z,101236.48
2023-05-14T16:19:00.328Z,101237.61
2023-05-14T16:21:28.993Z,101236.46
2023-05-14T16:23:57.650Z,101233.46
2023-05-14T16:26:26.685Z,101233.96
2023-05-14T16:28:55.281Z,101233.78
2023-05-14T16:31:24.057Z,101229.31
2023-05-14T16:33:52.688Z,101231.59
2023-05-14T16:36:21.293Z,101234.61
2023-05-14T16:39:06.801Z,101237.17
2023-05-14T16:41:36.508Z,101236.23
2023-05-14T16:44:05.251Z,101233.59
2023-05-14T16:46:34.165Z,101229.88
2023-05-14T16:49:02.949Z,101227.89
2023-05-14T16:51:32.018Z,101230.52
2023-05-14T16:54:00.746Z,101233.55
2023-05-14T16:56:30.470Z,101242.71
2023-05-14T16:58:59.033Z,101244.98
2023-05-14T17:01:27.543Z,101246.15
2023-05-14T17:03:56.409Z,101240.30
2023-05-14T17:06:25.098Z,101239.76
2023-05-14T17:08:53.645Z,101234.80
2023-05-14T17:11:22.194Z,101230.41
2023-05-14T17:14:01.652Z,101232.79
2023-05-14T17:16:29.145Z,101238.52
2023-05-14T17:18:56.934Z,101244.48
2023-05-14T17:21:25.977Z,101249.29
2023-05-14T17:23:54.589Z,101256.50
2023-05-14T17:26:23.646Z,101259.63
2023-05-14T17:28:52.322Z,101265.15
2023-05-14T17:31:22.555Z,101271.16
2023-05-14T17:33:51.198Z,101280.30
2023-05-14T17:36:19.681Z,101286.20
2023-05-14T17:38:48.345Z,101283.45
2023-05-14T17:41:16.746Z,101286.39
2023-05-14T17:43:45.389Z,101283.23
2023-05-14T17:46:14.298Z,101287.71
2023-05-14T17:48:42.980Z,101288.42
2023-05-14T17:51:11.485Z,101290.75
2023-05-14T17:53:40.060Z,101299.24
2023-05-14T17:56:08.673Z,101308.61
2023-05-14T17:58:37.314Z,101314.78
2023-05-14T18:01:06.254Z,101318.93
2023-05-14T18:03:35.129Z,101320.42
2023-05-14T18:06:04.502Z,101318.14
2023-05-14T18:08:33.064Z,101309.31
2023-05-14T18:11:01.710Z,101305.19
2023-05-14T18:13:30.307Z,101305.10
2023-05-14T18:15:58.827Z,101304.50
2023-05-14T18:18:27.657Z,101301.10
2023-05-14T18:20:56.223Z,101293.99
2023-05-14T18:23:24.981Z,101289.91
2023-05-14T18:25:54.232Z,101285.80
2023-05-14T18:28:22.947Z,101286.89
2023-05-14T18:30:51.542Z,101284.58
2023-05-14T18:33:20.141Z,101280.91
2023-05-14T18:35:48.606Z,101278.02
2023-05-14T18:38:18.308Z,101272.02
2023-05-14T18:40:46.992Z,101267.15
2023-05-14T18:43:18.531Z,101260.85
2023-05-14T18:45:47.614Z,101257.38
2023-05-14T18:48:16.625Z,101254.70
2023-05-14T18:50:45.184Z,101258.09
2023-05-14T18:53:13.713Z,101262.23
2023-05-14T18:55:42.298Z,101267.00
2023-05-14T18:58:11.128Z,101274.52
2023-05-14T19:00:39.828Z,101280.16
2023-05-14T19:03:08.733Z,101284.04
2023-05-14T19:05:38.130Z,101287.45
2023-05-14T19:08:07.973Z,101290.61
2023-05-14T19:10:36.515Z,101291.88
2023-05-14T19:13:05.407Z,101292.17
2023-05-14T19:15:33.931Z,101288.80
2023-05-14T19:18:02.391Z,101288.34
2023-05-14T19:20:30.884Z,101288.36
2023-05-14T19:22:59.425Z,101292.24
2023-05-14T19:25:28.283Z,101292.54
2023-05-14T19:27:58.004Z,101287.33
2023-05-14T19:30:26.526Z,101290.67
2023-05-14T19:32:55.183Z,101294.31
2023-05-14T19:35:24.317Z,101296.07
2023-05-14T19:37:53.190Z,101298.98
2023-05-14T19:40:22.192Z,101300.81
2023-05-14T19:42:50.659Z,101300.74
2023-05-14T19:45:19.168Z,101298.27
2023-05-14T19:47:47.685Z,101295.14
2023-05-14T19:50:16.152Z,101292.67
2023-05-14T19:52:44.698Z,101298.03
2023-05-14T19:55:13.173Z,101293.38
2023-05-14T19:57:41.756Z,101287.71
2023-05-14T20:00:12.103Z,101287.48
2023-05-14T20:02:41.062Z,101283.14
2023-05-14T20:05:10.750Z,101281.06
2023-05-14T20:07:40.345Z,101282.40
2023-05-14T20:10:10.072Z,101280.64
2023-05-14T20:12:38.733Z,101275.94
2023-05-14T20:15:08.018Z,101274.96
2023-05-14T20:17:38.310Z,101275.88
2023-05-14T20:20:09.364Z,101273.99
2023-05-14T20:22:38.633Z,101269.86
2023-05-14T20:25:08.051Z,101261.50
2023-05-14T20:27:36.971Z,101258.21
2023-05-14T20:30:09.301Z,101253.25
2023-05-14T20:32:37.858Z,101245.27
2023-05-14T20:35:07.268Z,101243.12
2023-05-14T20:37:35.946Z,101239.17
2023-05-14T20:40:06.324Z,101237.72
2023-05-14T20:42:36.496Z,101231.39
2023-05-14T20:45:06.780Z,101227.20
2023-05-14T20:47:35.795Z,101218.75
2023-05-14T20:53:45.955Z,101220.20
2023-05-14T20:56:14.585Z,101215.23
2023-05-14T20:58:43.195Z,101219.55
2023-05-14T21:01:11.886Z,101218.77
2023-05-14T21:03:40.582Z,101213.74
2023-05-14T21:06:09.124Z,101209.42
2023-05-14T21:08:39.388Z,101208.89
2023-05-14T21:11:08.723Z,101204.23
2023-05-14T21:13:37.280Z,101209.46
2023-05-14T21:16:06.338Z,101214.70
2023-05-14T21:18:35.055Z,101215.90
2023-05-14T21:21:03.963Z,101222.31
2023-05-14T21:23:32.609Z,101223.06
2023-05-14T21:26:01.156Z,101219.98
2023-05-14T21:28:29.639Z,101219.45
2023-05-14T21:30:58.160Z,101217.08
2023-05-14T21:33:26.699Z,101211.29
2023-05-14T21:35:55.262Z,101205.02
2023-05-14T21:38:23.752Z,101207.29
2023-05-14T21:40:52.248Z,101202.00
2023-05-14T21:43:20.711Z,101199.98
2023-05-14T21:45:49.215Z,101198.50
2023-05-14T21:48:18.111Z,101201.71
2023-05-14T21:50:47.003Z,101200.54
2023-05-14T21:53:15.682Z,101207.65
2023-05-14T21:55:44.257Z,101205.70
2023-05-14T21:58:12.718Z,101206.86
2023-05-14T22:00:41.391Z,101202.20
2023-05-14T22:03:10.180Z,101199.20
2023-05-14T22:05:38.950Z,101199.23
2023-05-14T22:08:07.674Z,101195.52
2023-05-14T22:10:36.256Z,101194.77
2023-05-14T22:13:04.702Z,101193.15
2023-05-14T22:15:33.180Z,101188.30
2023-05-14T22:18:03.301Z,101182.63
2023-05-14T22:20:31.893Z,101176.86
2023-05-14T22:23:00.247Z,101176.38
2023-05-14T22:25:28.827Z,101176.12
2023-05-14T22:27:57.394Z,101171.55
2023-05-14T22:30:25.973Z,101166.67
2023-05-14T22:32:54.433Z,101165.90
2023-05-14T22:35:23.056Z,101162.24
2023-05-14T22:37:51.627Z,101152.84
2023-05-14T22:40:20.348Z,101146.89
2023-05-14T22:42:48.820Z,101147.06
2023-05-14T22:45:17.367Z,101145.75
2023-05-14T22:47:46.034Z,101143.62
2023-05-14T22:50:14.584Z,101139.98
2023-05-14T22:52:43.165Z,101137.66
2023-05-14T22:55:11.675Z,101137.83
2023-05-14T22:57:40.355Z,101136.81
2023-05-14T23:00:09.613Z,101142.93
2023-05-14T23:02:38.246Z,101143.20
2023-05-14T23:05:09.054Z,101142.55
2023-05-14T23:07:37.638Z,101146.48
2023-05-14T23:10:06.736Z,101140.02
2023-05-14T23:12:35.240Z,101131.38
2023-05-14T23:15:04.169Z,101127.39
2023-05-14T23:17:32.798Z,101124.42
2023-05-14T23:20:01.510Z,101128.41
2023-05-14T23:22:29.964Z,101129.23
2023-05-14T23:24:58.450Z,101128.58
2023-05-14T23:27:27.423Z,101134.17
2023-05-14T23:29:55.776Z,101137.79
2023-05-14T23:32:24.430Z,101136.36
2023-05-14T23:34:52.984Z,101132.34
2023-05-14T23:37:21.615Z,101132.45
2023-05-14T23:39:50.494Z,101129.83
2023-05-14T23:42:19.008Z,101125.86
2023-05-14T23:44:47.460Z,101123.94
2023-05-14T23:47:16.217Z,101127.50
2023-05-14T23:49:44.721Z,101136.06
2023-05-14T23:52:13.240Z,101134.33
2023-05-14T23:54:41.700Z,101127.70
2023-05-14T23:57:13.033Z,101129.14
2023-05-14T23:59:43.065Z,101132.57
